Solana — WCY5602 — position and weather

sailwx.info

Track history (hours):
 
Tides and Currents Weather Stations Pressure Air Temp Water Temp Dewpoint Dewpoint Depression Visibility Wind Speed Wind Dir Waves Ship Positions

Solana

Owner: TAURUS MARINE, SAN FRANCISCO, CA. More information available from US FCC via Universal Licensing System and Coast Guard Vessel Documentation Center.

Last reported at 2016-Feb-08 20:33 UTC. Time now 2016-Feb-09 11:56 UTC.
Position N 47°34' W 122°21'.

Length 21 m; draft 3 m.

Type: Tug. MMSI: 366969740.

Date/timePositionNaut miles runAvg speedWind from/ knotsBaromVisibWave heightAir tempDewpointWater temp
2016-Feb-08 20:33N 47°34' W 122°21'0 0.0
2016-Feb-08 18:33N 47°34' W 122°21'  
2016-Feb-06 05:22N 47°34' W 122°21'0 0.0
2016-Feb-06 04:34N 47°34' W 122°21'0 0.0
2016-Feb-06 03:33N 47°34' W 122°21'0 0.0
2016-Feb-06 02:34N 47°34' W 122°21'0 0.0
2016-Feb-06 01:33N 47°34' W 122°21'0 0.0
2016-Feb-06 00:33N 47°34' W 122°21'1 1.2
2016-Feb-05 23:33N 47°35' W 122°21'0 0.4
2016-Feb-05 22:33N 47°35' W 122°21'0 0.0
2016-Feb-05 21:34N 47°35' W 122°22'0 0.0
2016-Feb-05 20:34N 47°35' W 122°22'0 0.0
2016-Feb-05 19:34N 47°35' W 122°22'0 0.0
2016-Feb-05 18:33N 47°35' W 122°22'0 0.0
2016-Feb-05 17:34N 47°35' W 122°22'0 0.0
2016-Feb-05 16:34N 47°35' W 122°22'0 0.4
2016-Feb-05 15:34N 47°35' W 122°21'1 1.1
2016-Feb-05 14:34N 47°34' W 122°21'0 0.3
2016-Feb-05 13:33N 47°34' W 122°21'0 0.0
2016-Feb-05 12:34N 47°34' W 122°21'0 0.0
2016-Feb-05 11:33N 47°34' W 122°21'0 0.0
2016-Feb-05 10:34N 47°34' W 122°21'0 0.0
2016-Feb-05 09:34N 47°34' W 122°21'0 0.0
2016-Feb-05 08:34N 47°34' W 122°21'0 0.0
2016-Feb-05 07:33N 47°34' W 122°21'2 2.0
2016-Feb-05 06:34N 47°36' W 122°23'7 6.7
2016-Feb-05 05:34N 47°34' W 122°32'4 3.6
2016-Feb-05 04:33N 47°36' W 122°28'8 7.9
2016-Feb-05 03:34N 47°43' W 122°25'8 7.6
2016-Feb-05 02:34N 47°51' W 122°24'9 8.7
2016-Feb-05 01:34N 47°59' W 122°20'19 8.0
2016-Feb-04 23:11N 48°15' W 122°35'2 0.2
2016-Feb-04 14:33N 48°17' W 122°37'11 4.6
2016-Feb-04 12:11N 48°07' W 122°30'3 5.2
2016-Feb-04 11:34N 48°05' W 122°27'5 5.3
2016-Feb-04 10:34N 48°01' W 122°21'5 5.3
2016-Feb-04 09:34N 47°56' W 122°20'7 7.4
2016-Feb-04 08:34N 47°49' W 122°24'8 7.7
2016-Feb-04 07:34N 47°42' W 122°27'7 7.2
2016-Feb-04 06:34N 47°35' W 122°28'3 2.8
2016-Feb-04 05:34N 47°34' W 122°32'3 3.2
2016-Feb-04 04:34N 47°35' W 122°28'5 4.6
2016-Feb-04 03:33N 47°34' W 122°21'0 0.0
2016-Feb-04 02:34N 47°34' W 122°21'0 0.0
2016-Feb-02 19:33N 47°34' W 122°21'0 0.0
2016-Jan-31 18:33N 47°34' W 122°21'1 1.1
2016-Jan-31 17:33N 47°35' W 122°21'0 0.0
2016-Jan-30 02:34N 47°35' W 122°22'7 7.2
2016-Jan-30 01:33N 47°34' W 122°32'3 3.2
2016-Jan-30 00:33N 47°35' W 122°28'7 7.3
2016-Jan-29 23:34N 47°42' W 122°25'5 5.4
2016-Jan-29 22:34N 47°48' W 122°24'7 7.0
2016-Jan-29 21:34N 47°54' W 122°20'5 5.2
2016-Jan-29 20:34N 47°58' W 122°15'  
Track history (hours):
 
Tides and Currents Weather Stations Pressure Air Temp Water Temp Dewpoint Dewpoint Depression Visibility Wind Speed Wind Dir Waves Ship Positions

Solana

Owner: TAURUS MARINE, SAN FRANCISCO, CA. More information available from US FCC via Universal Licensing System and Coast Guard Vessel Documentation Center.

Last reported at 2016-Feb-08 20:33 UTC. Time now 2016-Feb-09 11:56 UTC.
Position N 47°34' W 122°21'.

Length 21 m; draft 3 m.

Type: Tug. MMSI: 366969740.

Date/timePositionNaut miles runAvg speedWind from/ knotsBaromVisibWave heightAir tempDewpointWater temp
2016-Feb-08 20:33N 47°34' W 122°21'0 0.0
2016-Feb-08 18:33N 47°34' W 122°21'  
2016-Feb-06 05:22N 47°34' W 122°21'0 0.0
2016-Feb-06 04:34N 47°34' W 122°21'0 0.0
2016-Feb-06 03:33N 47°34' W 122°21'0 0.0
2016-Feb-06 02:34N 47°34' W 122°21'0 0.0
2016-Feb-06 01:33N 47°34' W 122°21'0 0.0
2016-Feb-06 00:33N 47°34' W 122°21'1 1.2
2016-Feb-05 23:33N 47°35' W 122°21'0 0.4
2016-Feb-05 22:33N 47°35' W 122°21'0 0.0
2016-Feb-05 21:34N 47°35' W 122°22'0 0.0
2016-Feb-05 20:34N 47°35' W 122°22'0 0.0
2016-Feb-05 19:34N 47°35' W 122°22'0 0.0
2016-Feb-05 18:33N 47°35' W 122°22'0 0.0
2016-Feb-05 17:34N 47°35' W 122°22'0 0.0
2016-Feb-05 16:34N 47°35' W 122°22'0 0.4
2016-Feb-05 15:34N 47°35' W 122°21'1 1.1
2016-Feb-05 14:34N 47°34' W 122°21'0 0.3
2016-Feb-05 13:33N 47°34' W 122°21'0 0.0
2016-Feb-05 12:34N 47°34' W 122°21'0 0.0
2016-Feb-05 11:33N 47°34' W 122°21'0 0.0
2016-Feb-05 10:34N 47°34' W 122°21'0 0.0
2016-Feb-05 09:34N 47°34' W 122°21'0 0.0
2016-Feb-05 08:34N 47°34' W 122°21'0 0.0
2016-Feb-05 07:33N 47°34' W 122°21'2 2.0
2016-Feb-05 06:34N 47°36' W 122°23'7 6.7
2016-Feb-05 05:34N 47°34' W 122°32'4 3.6
2016-Feb-05 04:33N 47°36' W 122°28'8 7.9
2016-Feb-05 03:34N 47°43' W 122°25'8 7.6
2016-Feb-05 02:34N 47°51' W 122°24'9 8.7
2016-Feb-05 01:34N 47°59' W 122°20'19 8.0
2016-Feb-04 23:11N 48°15' W 122°35'2 0.2
2016-Feb-04 14:33N 48°17' W 122°37'11 4.6
2016-Feb-04 12:11N 48°07' W 122°30'3 5.2
2016-Feb-04 11:34N 48°05' W 122°27'5 5.3
2016-Feb-04 10:34N 48°01' W 122°21'5 5.3
2016-Feb-04 09:34N 47°56' W 122°20'7 7.4
2016-Feb-04 08:34N 47°49' W 122°24'8 7.7
2016-Feb-04 07:34N 47°42' W 122°27'7 7.2
2016-Feb-04 06:34N 47°35' W 122°28'3 2.8
2016-Feb-04 05:34N 47°34' W 122°32'3 3.2
2016-Feb-04 04:34N 47°35' W 122°28'5 4.6
2016-Feb-04 03:33N 47°34' W 122°21'0 0.0
2016-Feb-04 02:34N 47°34' W 122°21'0 0.0
2016-Feb-02 19:33N 47°34' W 122°21'0 0.0
2016-Jan-31 18:33N 47°34' W 122°21'1 1.1
2016-Jan-31 17:33N 47°35' W 122°21'0 0.0
2016-Jan-30 02:34N 47°35' W 122°22'7 7.2
2016-Jan-30 01:33N 47°34' W 122°32'3 3.2
2016-Jan-30 00:33N 47°35' W 122°28'7 7.3
2016-Jan-29 23:34N 47°42' W 122°25'5 5.4
2016-Jan-29 22:34N 47°48' W 122°24'7 7.0
2016-Jan-29 21:34N 47°54' W 122°20'5 5.2
2016-Jan-29 20:34N 47°58' W 122°15'  

Dump ship's entire track history